Time;durP1;ratioP1;P1;durP2;ratioP2;P2;SDS_P1;SDS_P2;PMS_P1;PMS_P2;Temp;Humidity;BMP_temperature;BMP_pressure;BME280_temperature;BME280_humidity;BME280_pressure;Samples;Min_cycle;Max_cycle;Signal;HPM_P1;HPM_P2
2022/08/03 00:01:53;;;;;;;0.75;0.75;;;;;;;;;;1877072;74;26260;-85
2022/08/03 00:04:20;;;;;;;0.80;0.80;;;;;;;;;;1872695;75;26708;-85
2022/08/03 00:06:48;;;;;;;0.80;0.80;;;;;;;;;;1871221;74;26816;-85
2022/08/03 00:09:16;;;;;;;0.70;0.70;;;;;;;;;;1874020;74;26241;-85
2022/08/03 00:11:43;;;;;;;0.65;0.65;;;;;;;;;;1878743;74;26163;-85
2022/08/03 00:14:10;;;;;;;0.60;0.60;;;;;;;;;;1872562;74;26252;-85
2022/08/03 00:16:38;;;;;;;0.80;0.80;;;;;;;;;;1876359;74;26214;-85
2022/08/03 00:19:05;;;;;;;0.68;0.68;;;;;;;;;;1874620;75;26304;-85
2022/08/03 00:21:32;;;;;;;0.68;0.68;;;;;;;;;;1870467;74;26775;-85
2022/08/03 00:24:00;;;;;;;0.70;0.70;;;;;;;;;;1874347;74;26780;-85
2022/08/03 00:26:27;;;;;;;0.55;0.55;;;;;;;;;;1867676;74;26270;-85
2022/08/03 00:28:54;;;;;;;0.70;0.70;;;;;;;;;;1874501;74;26291;-85
2022/08/03 00:31:22;;;;;;;0.70;0.70;;;;;;;;;;1870209;74;26767;-85
2022/08/03 00:33:49;;;;;;;0.60;0.60;;;;;;;;;;1881695;74;26207;-85
2022/08/03 00:36:16;;;;;;;0.70;0.70;;;;;;;;;;1870097;75;26261;-85
2022/08/03 00:38:44;;;;;;;0.70;0.70;;;;;;;;;;1881575;75;26218;-86
2022/08/03 00:41:11;;;;;;;0.78;0.78;;;;;;;;;;1878782;75;26314;-85
2022/08/03 00:43:38;;;;;;;0.60;0.60;;;;;;;;;;1885111;74;26202;-84
2022/08/03 00:46:05;;;;;;;0.62;0.62;;;;;;;;;;1875915;74;26722;-85
2022/08/03 00:48:33;;;;;;;0.55;0.55;;;;;;;;;;1880507;74;26793;-85
2022/08/03 00:51:00;;;;;;;0.50;0.50;;;;;;;;;;1880269;74;26270;-86
2022/08/03 00:53:27;;;;;;;0.50;0.50;;;;;;;;;;1877781;75;26265;-86
2022/08/03 00:55:55;;;;;;;0.60;0.60;;;;;;;;;;1865381;75;26744;-85
2022/08/03 00:58:23;;;;;;;0.70;0.70;;;;;;;;;;1883081;74;26266;-85
2022/08/03 01:00:50;;;;;;;0.60;0.60;;;;;;;;;;1881745;75;26671;-85
2022/08/03 01:03:18;;;;;;;0.57;0.57;;;;;;;;;;1864918;74;26218;-85
2022/08/03 01:05:53;;;;;;;0.50;0.50;;;;;;;;;;1859104;75;26209;-85
2022/08/03 01:08:40;;;;;;;0.60;0.60;;;;;;;;;;1872902;74;26260;-86
2022/08/03 01:11:11;;;;;;;0.60;0.60;;;;;;;;;;1870429;75;26216;-85
2022/08/03 01:13:43;;;;;;;0.50;0.50;;;;;;;;;;1866553;74;26179;-85
2022/08/03 01:16:18;;;;;;;0.55;0.55;;;;;;;;;;1873309;74;26262;-86
2022/08/03 01:18:46;;;;;;;0.60;0.60;;;;;;;;;;1842232;74;26351;-85
2022/08/03 01:21:21;;;;;;;0.50;0.50;;;;;;;;;;1876107;74;26269;-85
2022/08/03 01:24:05;;;;;;;0.50;0.50;;;;;;;;;;1850015;75;26661;-85
2022/08/03 01:26:33;;;;;;;0.42;0.42;;;;;;;;;;1856203;75;26251;-85
2022/08/03 01:29:14;;;;;;;0.53;0.53;;;;;;;;;;1866325;75;26271;-84
2022/08/03 01:31:43;;;;;;;0.47;0.47;;;;;;;;;;1860786;74;26286;-85
2022/08/03 01:34:12;;;;;;;0.40;0.40;;;;;;;;;;1881001;74;26222;-85
2022/08/03 01:36:40;;;;;;;0.40;0.40;;;;;;;;;;1872988;74;26246;-85
2022/08/03 01:39:10;;;;;;;0.60;0.60;;;;;;;;;;1860345;75;26257;-84
2022/08/03 01:41:39;;;;;;;0.50;0.50;;;;;;;;;;1871782;74;26781;-85
2022/08/03 01:44:07;;;;;;;0.55;0.55;;;;;;;;;;1876320;75;26190;-85
2022/08/03 01:46:36;;;;;;;0.45;0.45;;;;;;;;;;1874471;74;26335;-86
2022/08/03 01:49:05;;;;;;;0.53;0.53;;;;;;;;;;1878241;75;26313;-85
2022/08/03 01:51:33;;;;;;;0.50;0.50;;;;;;;;;;1872206;74;26322;-85
2022/08/03 01:54:01;;;;;;;0.42;0.42;;;;;;;;;;1872326;74;26353;-85
2022/08/03 01:56:29;;;;;;;0.40;0.40;;;;;;;;;;1885362;74;26250;-85
2022/08/03 01:58:58;;;;;;;0.50;0.50;;;;;;;;;;1881811;75;26283;-85
2022/08/03 02:01:26;;;;;;;0.50;0.50;;;;;;;;;;1869536;75;26220;-85
2022/08/03 02:03:54;;;;;;;0.47;0.47;;;;;;;;;;1885386;75;26223;-85
2022/08/03 02:06:22;;;;;;;0.50;0.50;;;;;;;;;;1875877;74;26211;-85
2022/08/03 02:08:51;;;;;;;0.53;0.53;;;;;;;;;;1875258;75;26198;-85
2022/08/03 02:11:18;;;;;;;0.50;0.50;;;;;;;;;;1880407;74;26257;-85
2022/08/03 02:13:46;;;;;;;0.45;0.45;;;;;;;;;;1880125;75;26226;-85
2022/08/03 02:16:14;;;;;;;0.45;0.45;;;;;;;;;;1873818;74;26262;-85
2022/08/03 02:18:41;;;;;;;0.80;0.47;;;;;;;;;;1866352;75;26661;-86
2022/08/03 02:21:10;;;;;;;0.33;0.33;;;;;;;;;;1879632;74;26331;-85
2022/08/03 02:23:37;;;;;;;0.40;0.40;;;;;;;;;;1864194;74;26233;-85
2022/08/03 02:26:06;;;;;;;0.40;0.40;;;;;;;;;;1872955;75;26729;-86
2022/08/03 02:28:38;;;;;;;0.40;0.40;;;;;;;;;;1867461;75;26242;-86
2022/08/03 02:31:07;;;;;;;0.40;0.40;;;;;;;;;;1860100;75;26221;-85
2022/08/03 02:33:36;;;;;;;0.40;0.40;;;;;;;;;;1862257;75;26319;-86
2022/08/03 02:36:04;;;;;;;0.40;0.40;;;;;;;;;;1864377;74;26198;-84
2022/08/03 02:38:33;;;;;;;0.47;0.47;;;;;;;;;;1884104;74;26268;-85
2022/08/03 02:41:01;;;;;;;0.57;0.57;;;;;;;;;;1870115;74;26209;-84
2022/08/03 02:43:30;;;;;;;0.50;0.50;;;;;;;;;;1857840;75;26708;-86
2022/08/03 02:45:57;;;;;;;0.40;0.40;;;;;;;;;;1872565;74;26264;-86
2022/08/03 02:48:26;;;;;;;0.42;0.42;;;;;;;;;;1880176;74;26705;-86
2022/08/03 02:50:55;;;;;;;0.40;0.40;;;;;;;;;;1890597;75;26269;-86
2022/08/03 02:53:23;;;;;;;0.50;0.50;;;;;;;;;;1886491;74;26281;-86
2022/08/03 02:55:50;;;;;;;0.50;0.50;;;;;;;;;;1872945;74;25839;-87
2022/08/03 02:58:20;;;;;;;0.30;0.30;;;;;;;;;;1874486;74;26251;-87
2022/08/03 03:00:48;;;;;;;0.40;0.40;;;;;;;;;;1864770;74;26218;-86
2022/08/03 03:03:15;;;;;;;0.40;0.40;;;;;;;;;;1879219;73;26261;-87
2022/08/03 03:05:43;;;;;;;0.40;0.40;;;;;;;;;;1862893;75;26303;-86
2022/08/03 03:08:20;;;;;;;0.40;0.40;;;;;;;;;;1866918;73;26284;-86
2022/08/03 03:10:47;;;;;;;0.40;0.40;;;;;;;;;;1868896;74;26276;-85
2022/08/03 03:13:15;;;;;;;0.30;0.30;;;;;;;;;;1862823;75;26678;-85
2022/08/03 03:15:43;;;;;;;0.40;0.40;;;;;;;;;;1864422;74;26292;-85
2022/08/03 03:18:11;;;;;;;0.30;0.30;;;;;;;;;;1871249;75;26866;-87
2022/08/03 03:20:39;;;;;;;0.50;0.50;;;;;;;;;;1882124;75;26937;-85
2022/08/03 03:23:08;;;;;;;0.45;0.45;;;;;;;;;;1875091;75;26312;-85
2022/08/03 03:25:36;;;;;;;0.37;0.37;;;;;;;;;;1872574;75;26217;-85
2022/08/03 03:28:03;;;;;;;0.37;0.37;;;;;;;;;;1877348;75;27054;-85
2022/08/03 03:30:31;;;;;;;0.40;0.40;;;;;;;;;;1900635;74;26311;-87
2022/08/03 03:32:58;;;;;;;0.37;0.37;;;;;;;;;;1885476;75;26301;-85
2022/08/03 03:35:26;;;;;;;0.40;0.40;;;;;;;;;;1876490;74;26214;-86
2022/08/03 03:37:54;;;;;;;0.30;0.30;;;;;;;;;;1896419;74;26300;-85
2022/08/03 03:40:21;;;;;;;0.40;0.40;;;;;;;;;;1872322;75;26768;-85
2022/08/03 03:42:49;;;;;;;0.30;0.30;;;;;;;;;;1883160;74;26234;-85
2022/08/03 03:45:17;;;;;;;0.50;0.50;;;;;;;;;;1872561;74;26756;-85
2022/08/03 03:47:44;;;;;;;0.37;0.37;;;;;;;;;;1885747;74;26246;-85
2022/08/03 03:50:12;;;;;;;0.40;0.40;;;;;;;;;;1877231;74;26201;-85
2022/08/03 03:52:39;;;;;;;0.40;0.40;;;;;;;;;;1881151;75;26214;-85
2022/08/03 03:55:07;;;;;;;0.30;0.30;;;;;;;;;;1868376;74;26203;-86
2022/08/03 03:57:34;;;;;;;0.40;0.40;;;;;;;;;;1895176;74;26240;-85
2022/08/03 04:00:02;;;;;;;0.50;0.50;;;;;;;;;;1890165;75;26798;-86
2022/08/03 04:02:29;;;;;;;0.40;0.40;;;;;;;;;;1886683;74;26337;-85
2022/08/03 04:13:21;;;;;;;0.30;0.30;;;;;;;;;;1873133;75;26177;-85
2022/08/03 04:15:49;;;;;;;0.30;0.30;;;;;;;;;;1875722;75;26230;-85
2022/08/03 04:18:18;;;;;;;0.40;0.40;;;;;;;;;;1880850;75;26203;-85
2022/08/03 04:20:47;;;;;;;0.40;0.40;;;;;;;;;;1875937;74;26223;-85
2022/08/03 04:23:16;;;;;;;0.30;0.30;;;;;;;;;;1834976;76;26657;-85
2022/08/03 04:25:43;;;;;;;0.30;0.30;;;;;;;;;;1865931;74;26229;-85
2022/08/03 04:28:11;;;;;;;0.50;0.40;;;;;;;;;;1882221;74;26215;-85
2022/08/03 04:30:46;;;;;;;0.40;0.40;;;;;;;;;;1880041;74;26208;-84
2022/08/03 04:33:08;;;;;;;0.33;0.33;;;;;;;;;;1863842;74;26249;-86
2022/08/03 04:35:36;;;;;;;0.40;0.40;;;;;;;;;;1839369;76;26182;-84
2022/08/03 04:38:04;;;;;;;0.37;0.37;;;;;;;;;;1874203;74;27114;-85
2022/08/03 04:40:35;;;;;;;0.30;0.30;;;;;;;;;;1868671;74;26658;-85
2022/08/03 04:43:04;;;;;;;0.53;0.30;;;;;;;;;;1847694;75;26263;-85
2022/08/03 04:45:32;;;;;;;0.30;0.30;;;;;;;;;;1865017;75;26276;-84
2022/08/03 04:47:59;;;;;;;0.40;0.40;;;;;;;;;;1833577;75;26646;-85
2022/08/03 04:50:27;;;;;;;0.42;0.42;;;;;;;;;;1863969;75;26189;-86
2022/08/03 04:52:55;;;;;;;0.45;0.45;;;;;;;;;;1879710;74;26215;-85
2022/08/03 04:55:27;;;;;;;0.40;0.40;;;;;;;;;;1873053;75;26276;-85
2022/08/03 04:57:54;;;;;;;0.30;0.30;;;;;;;;;;1870799;74;26235;-85
2022/08/03 05:00:22;;;;;;;0.40;0.40;;;;;;;;;;1858497;76;26633;-85
2022/08/03 05:02:49;;;;;;;0.30;0.30;;;;;;;;;;1875107;75;26214;-85
2022/08/03 05:05:17;;;;;;;0.40;0.40;;;;;;;;;;1871612;75;26299;-85
2022/08/03 05:07:44;;;;;;;0.40;0.40;;;;;;;;;;1872619;75;26686;-85
2022/08/03 05:10:11;;;;;;;0.35;0.35;;;;;;;;;;1863084;74;26283;-85
2022/08/03 05:12:39;;;;;;;0.40;0.40;;;;;;;;;;1878300;75;26288;-85
2022/08/03 05:15:06;;;;;;;0.40;0.40;;;;;;;;;;1865551;75;26781;-85
2022/08/03 05:17:34;;;;;;;0.40;0.40;;;;;;;;;;1862713;75;26276;-86
2022/08/03 05:20:02;;;;;;;0.40;0.40;;;;;;;;;;1867904;75;26260;-85
2022/08/03 05:22:30;;;;;;;0.30;0.30;;;;;;;;;;1855720;75;26257;-86
2022/08/03 05:24:57;;;;;;;0.40;0.40;;;;;;;;;;1864411;75;26283;-85
2022/08/03 05:27:25;;;;;;;0.40;0.40;;;;;;;;;;1868009;75;26166;-85
2022/08/03 05:29:52;;;;;;;0.62;0.30;;;;;;;;;;1864431;75;26174;-85
2022/08/03 05:32:19;;;;;;;0.50;0.50;;;;;;;;;;1842185;75;26312;-85
2022/08/03 05:34:47;;;;;;;0.30;0.30;;;;;;;;;;1851739;75;26207;-85
2022/08/03 05:37:14;;;;;;;0.40;0.40;;;;;;;;;;1846589;75;26312;-85
2022/08/03 05:39:41;;;;;;;0.30;0.30;;;;;;;;;;1864058;75;26283;-85
2022/08/03 05:42:09;;;;;;;0.30;0.30;;;;;;;;;;1856967;75;26193;-84
2022/08/03 05:44:37;;;;;;;0.40;0.40;;;;;;;;;;1867316;75;26245;-86
2022/08/03 05:47:05;;;;;;;0.45;0.45;;;;;;;;;;1879049;75;26749;-85
2022/08/03 05:49:32;;;;;;;0.35;0.35;;;;;;;;;;1865852;74;26218;-87
2022/08/03 05:51:59;;;;;;;0.40;0.40;;;;;;;;;;1876240;74;26199;-84
2022/08/03 05:54:29;;;;;;;0.45;0.45;;;;;;;;;;1889461;75;26739;-85
2022/08/03 05:56:55;;;;;;;0.30;0.30;;;;;;;;;;1871978;74;26240;-85
2022/08/03 05:59:24;;;;;;;0.40;0.40;;;;;;;;;;1871056;75;26292;-85
2022/08/03 06:01:51;;;;;;;0.40;0.40;;;;;;;;;;1874755;74;26287;-85
2022/08/03 06:04:19;;;;;;;0.50;0.50;;;;;;;;;;1883098;75;26218;-86
2022/08/03 06:06:47;;;;;;;0.50;0.50;;;;;;;;;;1868437;75;26215;-85
2022/08/03 06:09:14;;;;;;;0.40;0.40;;;;;;;;;;1865933;75;26198;-85
2022/08/03 06:11:41;;;;;;;0.40;0.40;;;;;;;;;;1872140;75;26214;-85
2022/08/03 06:14:08;;;;;;;0.40;0.40;;;;;;;;;;1857902;75;26264;-85
2022/08/03 06:16:37;;;;;;;0.40;0.40;;;;;;;;;;1874956;75;26266;-85
2022/08/03 06:19:05;;;;;;;0.37;0.37;;;;;;;;;;1870073;74;26233;-85
2022/08/03 06:21:32;;;;;;;0.30;0.30;;;;;;;;;;1874865;75;26725;-84
2022/08/03 06:24:00;;;;;;;0.50;0.50;;;;;;;;;;1870129;74;26738;-85
2022/08/03 06:26:27;;;;;;;0.30;0.30;;;;;;;;;;1870871;75;26690;-85
2022/08/03 06:28:55;;;;;;;0.40;0.40;;;;;;;;;;1875184;75;26709;-85
2022/08/03 06:31:24;;;;;;;0.50;0.50;;;;;;;;;;1877465;75;26215;-85
2022/08/03 06:33:52;;;;;;;0.47;0.47;;;;;;;;;;1869187;75;26255;-85
2022/08/03 06:36:19;;;;;;;0.50;0.50;;;;;;;;;;1868424;74;26252;-85
2022/08/03 06:38:46;;;;;;;0.57;0.35;;;;;;;;;;1863229;75;26344;-85
2022/08/03 06:41:14;;;;;;;0.50;0.50;;;;;;;;;;1875043;75;26297;-85
2022/08/03 06:43:41;;;;;;;0.60;0.60;;;;;;;;;;1861340;74;26791;-86
2022/08/03 06:46:09;;;;;;;0.50;0.50;;;;;;;;;;1867959;75;26229;-85
2022/08/03 06:48:37;;;;;;;0.40;0.40;;;;;;;;;;1865515;74;26209;-85
2022/08/03 06:51:04;;;;;;;0.40;0.40;;;;;;;;;;1880172;75;26289;-86
2022/08/03 06:53:31;;;;;;;0.60;0.60;;;;;;;;;;1867656;75;26302;-86
2022/08/03 06:55:58;;;;;;;0.80;0.50;;;;;;;;;;1876368;75;26286;-85
2022/08/03 06:58:26;;;;;;;0.33;0.30;;;;;;;;;;1878739;75;26670;-85
2022/08/03 07:00:53;;;;;;;0.45;0.45;;;;;;;;;;1869529;74;26262;-85
2022/08/03 07:03:20;;;;;;;0.40;0.40;;;;;;;;;;1875899;74;26248;-85
2022/08/03 07:05:48;;;;;;;0.42;0.42;;;;;;;;;;1878932;75;26206;-86
2022/08/03 07:08:15;;;;;;;0.40;0.40;;;;;;;;;;1876782;74;26891;-85
2022/08/03 07:10:43;;;;;;;0.40;0.40;;;;;;;;;;1880719;74;26222;-85
2022/08/03 07:13:11;;;;;;;0.40;0.40;;;;;;;;;;1881537;74;26257;-86
2022/08/03 07:15:39;;;;;;;1.55;0.50;;;;;;;;;;1870940;75;26264;-85
2022/08/03 07:18:07;;;;;;;0.40;0.40;;;;;;;;;;1869159;75;26354;-86
2022/08/03 07:20:35;;;;;;;0.40;0.40;;;;;;;;;;1870892;75;26762;-85
2022/08/03 07:23:02;;;;;;;0.50;0.50;;;;;;;;;;1875822;74;26368;-85
2022/08/03 07:25:30;;;;;;;0.50;0.40;;;;;;;;;;1870871;74;26734;-86
2022/08/03 07:27:57;;;;;;;0.50;0.50;;;;;;;;;;1872570;75;27113;-86
2022/08/03 07:30:24;;;;;;;0.60;0.60;;;;;;;;;;1865388;75;26681;-86
2022/08/03 07:32:52;;;;;;;0.50;0.50;;;;;;;;;;1866920;74;26197;-85
2022/08/03 07:35:19;;;;;;;1.15;0.60;;;;;;;;;;1873639;74;26209;-85
2022/08/03 07:37:46;;;;;;;2.12;0.60;;;;;;;;;;1874424;75;26216;-85
2022/08/03 07:40:13;;;;;;;1.25;0.68;;;;;;;;;;1870397;75;26209;-86
2022/08/03 07:42:41;;;;;;;0.62;0.60;;;;;;;;;;1872801;74;26658;-86
2022/08/03 07:45:08;;;;;;;6.65;0.90;;;;;;;;;;1873362;75;26697;-85
2022/08/03 07:47:36;;;;;;;0.80;0.80;;;;;;;;;;1866606;75;26198;-86
2022/08/03 07:50:04;;;;;;;4.83;0.82;;;;;;;;;;1867882;74;26225;-87
2022/08/03 07:52:50;;;;;;;5.28;0.72;;;;;;;;;;1874111;75;26258;-85
2022/08/03 07:55:19;;;;;;;4.97;1.10;;;;;;;;;;1860970;75;26268;-84
2022/08/03 07:57:46;;;;;;;6.75;1.00;;;;;;;;;;1870477;74;26272;-85
2022/08/03 08:00:18;;;;;;;2.72;1.07;;;;;;;;;;1867340;74;26265;-85
2022/08/03 08:02:45;;;;;;;11.60;1.12;;;;;;;;;;1862162;75;26189;-84
2022/08/03 08:05:12;;;;;;;5.50;1.02;;;;;;;;;;1865742;74;26245;-84
2022/08/03 08:07:40;;;;;;;5.95;1.02;;;;;;;;;;1877972;75;26249;-84
2022/08/03 08:10:08;;;;;;;2.72;1.00;;;;;;;;;;1860766;74;26241;-83
2022/08/03 08:12:36;;;;;;;3.87;1.00;;;;;;;;;;1865163;74;26274;-85
2022/08/03 08:15:04;;;;;;;2.33;0.82;;;;;;;;;;1868414;75;26254;-88
2022/08/03 08:17:31;;;;;;;5.95;0.90;;;;;;;;;;1876575;75;26301;-87
2022/08/03 08:19:58;;;;;;;2.33;0.80;;;;;;;;;;1868838;75;26752;-87
2022/08/03 08:22:25;;;;;;;1.30;0.68;;;;;;;;;;1879006;75;26716;-87
2022/08/03 08:24:53;;;;;;;3.08;0.70;;;;;;;;;;1871411;76;26235;-86
2022/08/03 08:27:20;;;;;;;2.00;0.80;;;;;;;;;;1876269;75;26288;-87
2022/08/03 08:29:49;;;;;;;2.62;0.82;;;;;;;;;;1878659;74;26212;-87
2022/08/03 08:32:16;;;;;;;2.75;0.78;;;;;;;;;;1857069;74;26280;-88
2022/08/03 08:34:43;;;;;;;2.05;0.80;;;;;;;;;;1872858;75;26319;-87
2022/08/03 08:37:10;;;;;;;1.20;0.70;;;;;;;;;;1875401;75;26814;-87
2022/08/03 08:39:38;;;;;;;1.27;0.70;;;;;;;;;;1876111;75;27154;-87
2022/08/03 08:42:05;;;;;;;1.00;0.70;;;;;;;;;;1864270;74;26712;-85
2022/08/03 08:44:32;;;;;;;5.78;0.85;;;;;;;;;;1869619;74;26213;-85
2022/08/03 08:47:01;;;;;;;1.45;0.85;;;;;;;;;;1878500;74;26230;-87
2022/08/03 08:49:29;;;;;;;2.58;0.90;;;;;;;;;;1866930;75;26242;-89
2022/08/03 08:51:57;;;;;;;1.10;0.70;;;;;;;;;;1865338;74;26237;-89
2022/08/03 08:54:25;;;;;;;1.37;0.70;;;;;;;;;;1842440;75;26781;-90
2022/08/03 08:56:53;;;;;;;0.80;0.80;;;;;;;;;;1873693;75;26241;-90
2022/08/03 08:59:21;;;;;;;2.65;0.80;;;;;;;;;;1880767;75;26773;-90
2022/08/03 09:01:48;;;;;;;0.95;0.70;;;;;;;;;;1872939;75;26260;-88
2022/08/03 09:04:15;;;;;;;3.27;0.70;;;;;;;;;;1895718;75;26671;-85
2022/08/03 09:06:43;;;;;;;2.17;0.70;;;;;;;;;;1874126;75;26304;-85
2022/08/03 09:09:10;;;;;;;1.17;0.70;;;;;;;;;;1876067;75;26310;-85
2022/08/03 09:11:39;;;;;;;0.68;0.68;;;;;;;;;;1864957;75;26682;-86
2022/08/03 09:14:06;;;;;;;1.60;0.72;;;;;;;;;;1874558;74;26670;-85
2022/08/03 09:16:33;;;;;;;0.80;0.80;;;;;;;;;;1884108;74;26391;-84
2022/08/03 09:19:02;;;;;;;0.68;0.68;;;;;;;;;;1877228;74;26288;-85
2022/08/03 09:21:29;;;;;;;3.33;0.62;;;;;;;;;;1874604;74;26335;-85
2022/08/03 09:23:58;;;;;;;0.70;0.70;;;;;;;;;;1882510;74;26288;-84
2022/08/03 09:26:26;;;;;;;1.05;0.75;;;;;;;;;;1884988;74;26312;-86
2022/08/03 09:29:04;;;;;;;0.70;0.70;;;;;;;;;;1886090;75;26366;-86
2022/08/03 09:31:32;;;;;;;0.78;0.78;;;;;;;;;;1870435;75;26277;-87
2022/08/03 09:34:04;;;;;;;2.55;0.80;;;;;;;;;;1875712;75;26237;-85
2022/08/03 09:36:35;;;;;;;0.70;0.70;;;;;;;;;;1873995;75;26730;-86
2022/08/03 09:39:09;;;;;;;0.70;0.70;;;;;;;;;;1875300;75;26260;-87
2022/08/03 09:41:33;;;;;;;0.70;0.70;;;;;;;;;;1860212;75;26322;-86
2022/08/03 09:44:01;;;;;;;1.57;0.60;;;;;;;;;;1877016;75;26265;-87
2022/08/03 09:46:30;;;;;;;1.70;0.72;;;;;;;;;;1853642;75;26243;-87
2022/08/03 09:49:10;;;;;;;0.80;0.80;;;;;;;;;;1845565;75;26339;-88
2022/08/03 09:51:38;;;;;;;0.80;0.80;;;;;;;;;;1876511;75;26221;-87
2022/08/03 09:54:05;;;;;;;0.68;0.68;;;;;;;;;;1854678;76;26266;-87
2022/08/03 09:56:40;;;;;;;0.70;0.70;;;;;;;;;;1877856;73;26346;-88
2022/08/03 09:59:08;;;;;;;1.25;0.70;;;;;;;;;;1879294;74;26146;-87
2022/08/03 10:01:36;;;;;;;0.55;0.55;;;;;;;;;;1874605;74;26227;-87
2022/08/03 10:04:03;;;;;;;0.60;0.60;;;;;;;;;;1873276;75;26227;-87
2022/08/03 10:06:30;;;;;;;0.60;0.60;;;;;;;;;;1878547;75;26214;-86
2022/08/03 10:08:59;;;;;;;0.62;0.60;;;;;;;;;;1866144;75;26295;-86
2022/08/03 10:11:31;;;;;;;0.70;0.70;;;;;;;;;;1863931;75;26229;-86
2022/08/03 10:13:58;;;;;;;1.02;0.60;;;;;;;;;;1875422;75;26380;-85
2022/08/03 10:16:26;;;;;;;0.60;0.60;;;;;;;;;;1867456;75;26258;-87
2022/08/03 10:18:55;;;;;;;0.93;0.80;;;;;;;;;;1873016;75;26236;-87
2022/08/03 10:21:23;;;;;;;0.60;0.60;;;;;;;;;;1868708;76;26316;-85
2022/08/03 10:23:52;;;;;;;0.60;0.60;;;;;;;;;;1866732;75;26218;-86
2022/08/03 10:26:21;;;;;;;0.60;0.60;;;;;;;;;;1883293;74;26274;-85
2022/08/03 10:28:49;;;;;;;0.60;0.60;;;;;;;;;;1882475;75;26231;-86
2022/08/03 10:31:17;;;;;;;0.65;0.65;;;;;;;;;;1865381;75;26244;-87
2022/08/03 10:33:46;;;;;;;0.95;0.60;;;;;;;;;;1873128;75;26787;-85
2022/08/03 10:36:15;;;;;;;0.72;0.65;;;;;;;;;;1872335;75;26758;-86
2022/08/03 10:38:46;;;;;;;0.60;0.60;;;;;;;;;;1865198;75;26681;-87
2022/08/03 10:41:15;;;;;;;0.70;0.68;;;;;;;;;;1874094;75;26354;-87
2022/08/03 10:43:44;;;;;;;0.70;0.70;;;;;;;;;;1871424;75;26233;-85
2022/08/03 10:46:13;;;;;;;0.60;0.60;;;;;;;;;;1870203;74;26262;-85
2022/08/03 10:48:40;;;;;;;0.50;0.50;;;;;;;;;;1879374;75;26254;-84
2022/08/03 10:51:09;;;;;;;0.70;0.70;;;;;;;;;;1874546;75;26650;-85
2022/08/03 10:53:37;;;;;;;0.70;0.70;;;;;;;;;;1879457;75;26333;-84
2022/08/03 10:58:52;;;;;;;1.85;0.70;;;;;;;;;;1861180;75;26202;-85
2022/08/03 11:01:20;;;;;;;0.60;0.60;;;;;;;;;;1882611;75;26267;-86
2022/08/03 11:03:56;;;;;;;0.60;0.60;;;;;;;;;;1870471;75;26229;-85
2022/08/03 11:06:24;;;;;;;0.50;0.50;;;;;;;;;;1872734;75;26235;-86
2022/08/03 11:09:12;;;;;;;0.60;0.60;;;;;;;;;;1863135;75;26269;-85
2022/08/03 11:11:42;;;;;;;0.53;0.53;;;;;;;;;;1859426;75;26333;-86
2022/08/03 11:14:16;;;;;;;0.60;0.60;;;;;;;;;;1864259;75;26826;-84
2022/08/03 11:16:45;;;;;;;0.53;0.53;;;;;;;;;;1861806;75;26231;-84
2022/08/03 11:19:15;;;;;;;0.62;0.62;;;;;;;;;;1872122;75;26203;-85
2022/08/03 11:21:46;;;;;;;0.60;0.60;;;;;;;;;;1866648;75;26236;-84
2022/08/03 11:24:31;;;;;;;0.60;0.60;;;;;;;;;;1851823;75;26279;-85
2022/08/03 11:27:16;;;;;;;0.50;0.50;;;;;;;;;;1852963;75;26268;-84
2022/08/03 11:30:00;;;;;;;0.60;0.60;;;;;;;;;;1876475;74;26815;-84
2022/08/03 11:32:45;;;;;;;0.60;0.60;;;;;;;;;;1864623;74;26313;-85
2022/08/03 11:35:13;;;;;;;0.70;0.70;;;;;;;;;;1857967;75;26256;-85
2022/08/03 11:37:57;;;;;;;0.60;0.60;;;;;;;;;;1875835;75;26289;-84
2022/08/03 11:40:40;;;;;;;0.72;0.72;;;;;;;;;;1870928;74;26252;-85
2022/08/03 11:43:10;;;;;;;0.60;0.60;;;;;;;;;;1874844;74;26242;-85
2022/08/03 11:45:37;;;;;;;0.50;0.50;;;;;;;;;;1860944;75;26328;-85
2022/08/03 11:48:12;;;;;;;1.60;0.60;;;;;;;;;;1874238;74;26290;-86
2022/08/03 11:50:40;;;;;;;1.17;0.50;;;;;;;;;;1871329;75;26257;-86
2022/08/03 11:53:07;;;;;;;0.50;0.50;;;;;;;;;;1883300;74;26250;-85
2022/08/03 11:55:35;;;;;;;0.47;0.47;;;;;;;;;;1879330;74;26230;-86
2022/08/03 11:58:04;;;;;;;0.60;0.60;;;;;;;;;;1863528;75;26253;-85
2022/08/03 12:00:31;;;;;;;0.60;0.60;;;;;;;;;;1860345;75;26241;-84
2022/08/03 12:03:03;;;;;;;0.65;0.65;;;;;;;;;;1877088;75;26241;-85
2022/08/03 12:05:43;;;;;;;0.50;0.50;;;;;;;;;;1871355;74;26667;-88
2022/08/03 12:08:12;;;;;;;0.50;0.50;;;;;;;;;;1868166;75;26203;-86
2022/08/03 12:10:40;;;;;;;0.50;0.50;;;;;;;;;;1864752;74;26229;-86
2022/08/03 12:13:11;;;;;;;0.60;0.60;;;;;;;;;;1873246;75;26225;-84
2022/08/03 12:15:39;;;;;;;0.80;0.60;;;;;;;;;;1877796;74;26250;-86
2022/08/03 12:18:15;;;;;;;0.70;0.70;;;;;;;;;;1865594;75;26224;-84
2022/08/03 12:20:43;;;;;;;0.40;0.40;;;;;;;;;;1867226;75;26760;-85
2022/08/03 12:23:10;;;;;;;0.60;0.60;;;;;;;;;;1877442;75;26218;-84
2022/08/03 12:25:39;;;;;;;0.53;0.53;;;;;;;;;;1844085;75;26303;-87
2022/08/03 12:28:09;;;;;;;1.15;0.60;;;;;;;;;;1864162;75;26603;-85
2022/08/03 12:30:38;;;;;;;0.60;0.60;;;;;;;;;;1867784;75;26257;-85
2022/08/03 12:33:22;;;;;;;0.45;0.45;;;;;;;;;;1873332;75;26218;-86
2022/08/03 12:35:48;;;;;;;0.53;0.53;;;;;;;;;;1872174;75;26245;-86
2022/08/03 12:38:17;;;;;;;0.60;0.60;;;;;;;;;;1875050;75;26291;-84
2022/08/03 12:40:45;;;;;;;0.60;0.60;;;;;;;;;;1860069;75;26190;-86
2022/08/03 12:43:13;;;;;;;0.60;0.60;;;;;;;;;;1880429;75;26206;-85
2022/08/03 12:45:40;;;;;;;0.50;0.50;;;;;;;;;;1857941;75;26681;-85
2022/08/03 12:48:10;;;;;;;0.60;0.60;;;;;;;;;;1858429;74;26262;-84
2022/08/03 12:50:38;;;;;;;0.50;0.50;;;;;;;;;;1867076;74;26281;-84
2022/08/03 12:53:06;;;;;;;0.50;0.50;;;;;;;;;;1876928;74;26307;-84
2022/08/03 12:55:34;;;;;;;0.50;0.50;;;;;;;;;;1874949;75;26178;-82
2022/08/03 12:58:06;;;;;;;0.60;0.60;;;;;;;;;;1878076;74;26178;-83
2022/08/03 13:00:33;;;;;;;0.60;0.60;;;;;;;;;;1867856;74;26685;-83
2022/08/03 13:03:02;;;;;;;0.50;0.50;;;;;;;;;;1837460;75;26186;-84
2022/08/03 13:05:30;;;;;;;0.60;0.60;;;;;;;;;;1866472;75;26252;-84
2022/08/03 13:07:57;;;;;;;0.50;0.50;;;;;;;;;;1866790;75;26716;-85
2022/08/03 13:10:31;;;;;;;0.62;0.60;;;;;;;;;;1868788;75;26304;-84
2022/08/03 13:13:01;;;;;;;1.42;0.50;;;;;;;;;;1852610;75;26213;-84
2022/08/03 13:15:28;;;;;;;1.40;0.60;;;;;;;;;;1874666;75;26265;-84
2022/08/03 13:17:56;;;;;;;0.72;0.70;;;;;;;;;;1873798;75;26764;-84
2022/08/03 13:20:24;;;;;;;0.57;0.57;;;;;;;;;;1873363;74;26261;-84
2022/08/03 13:22:53;;;;;;;0.70;0.70;;;;;;;;;;1865289;74;26309;-82
2022/08/03 13:25:20;;;;;;;0.80;0.80;;;;;;;;;;1856413;74;26347;-84
2022/08/03 13:27:47;;;;;;;1.85;0.60;;;;;;;;;;1864042;74;26212;-82
2022/08/03 13:30:15;;;;;;;0.60;0.60;;;;;;;;;;1868387;75;26311;-84
2022/08/03 13:32:42;;;;;;;0.40;0.40;;;;;;;;;;1869384;75;26261;-85
2022/08/03 13:35:09;;;;;;;0.60;0.60;;;;;;;;;;1875605;75;26238;-83
2022/08/03 13:37:37;;;;;;;0.60;0.60;;;;;;;;;;1872537;74;26311;-83
2022/08/03 13:40:06;;;;;;;0.60;0.60;;;;;;;;;;1868017;75;26177;-83
2022/08/03 13:42:34;;;;;;;0.53;0.53;;;;;;;;;;1872146;74;26214;-85
2022/08/03 13:45:02;;;;;;;0.60;0.60;;;;;;;;;;1873860;75;26256;-84
2022/08/03 13:47:29;;;;;;;0.70;0.70;;;;;;;;;;1877383;74;26305;-84
2022/08/03 13:49:56;;;;;;;0.60;0.60;;;;;;;;;;1873570;74;26242;-84
2022/08/03 13:52:23;;;;;;;0.70;0.70;;;;;;;;;;1867383;74;26249;-86
2022/08/03 13:54:51;;;;;;;0.60;0.60;;;;;;;;;;1872890;75;26231;-84
2022/08/03 13:57:18;;;;;;;2.08;0.90;;;;;;;;;;1868592;74;26218;-84
2022/08/03 13:59:45;;;;;;;0.80;0.80;;;;;;;;;;1857780;75;26273;-83
2022/08/03 14:02:12;;;;;;;0.70;0.70;;;;;;;;;;1869079;75;26692;-84
2022/08/03 14:04:40;;;;;;;0.65;0.65;;;;;;;;;;1870703;75;26243;-84
2022/08/03 14:07:07;;;;;;;2.40;0.70;;;;;;;;;;1861196;74;26210;-83
2022/08/03 14:09:35;;;;;;;1.82;0.80;;;;;;;;;;1869980;75;26205;-82
2022/08/03 14:12:03;;;;;;;1.40;0.78;;;;;;;;;;1867616;74;26712;-83
2022/08/03 14:14:30;;;;;;;0.80;0.80;;;;;;;;;;1847826;75;26203;-84
2022/08/03 14:16:57;;;;;;;1.20;0.70;;;;;;;;;;1870192;75;26272;-84
2022/08/03 14:19:25;;;;;;;1.57;0.80;;;;;;;;;;1868312;74;26233;-85
2022/08/03 14:21:52;;;;;;;1.07;0.72;;;;;;;;;;1869932;74;26384;-84
2022/08/03 14:24:19;;;;;;;0.80;0.80;;;;;;;;;;1867854;75;26366;-86
2022/08/03 14:26:47;;;;;;;0.70;0.70;;;;;;;;;;1886725;74;26284;-86
2022/08/03 14:29:14;;;;;;;0.80;0.80;;;;;;;;;;1868952;74;27062;-87
2022/08/03 14:31:41;;;;;;;0.60;0.60;;;;;;;;;;1872891;75;26733;-86
2022/08/03 14:34:08;;;;;;;1.90;0.80;;;;;;;;;;1864758;75;26259;-85
2022/08/03 14:36:36;;;;;;;2.95;0.65;;;;;;;;;;1869186;75;26269;-88
2022/08/03 14:39:03;;;;;;;0.98;0.80;;;;;;;;;;1870586;75;26256;-87
2022/08/03 14:41:31;;;;;;;2.30;0.80;;;;;;;;;;1886775;75;26303;-85
2022/08/03 14:43:58;;;;;;;1.07;0.70;;;;;;;;;;1881381;74;26234;-87
2022/08/03 14:46:25;;;;;;;3.62;0.70;;;;;;;;;;1870169;74;26268;-87
2022/08/03 14:48:52;;;;;;;0.80;0.80;;;;;;;;;;1878712;75;26699;-89
2022/08/03 14:51:20;;;;;;;0.70;0.70;;;;;;;;;;1880358;74;26828;-87
2022/08/03 14:53:47;;;;;;;1.67;0.72;;;;;;;;;;1869298;74;26273;-87
2022/08/03 14:56:14;;;;;;;1.47;0.80;;;;;;;;;;1840040;74;26281;-86
2022/08/03 14:58:42;;;;;;;3.40;0.80;;;;;;;;;;1877925;74;26334;-87
2022/08/03 15:01:10;;;;;;;2.42;0.80;;;;;;;;;;1875896;74;26269;-87
2022/08/03 15:03:37;;;;;;;2.67;0.95;;;;;;;;;;1863426;74;26242;-88